createdAt,value
2019-02-28T00:00:51.758Z,24.87
2019-02-28T00:03:21.502Z,25.63
2019-02-28T00:05:51.160Z,27.20
2019-02-28T00:08:21.200Z,26.87
2019-02-28T00:10:50.880Z,26.70
2019-02-28T00:13:21.675Z,25.43
2019-02-28T00:15:52.799Z,24.80
2019-02-28T00:18:22.606Z,27.47
2019-02-28T00:20:52.636Z,26.80
2019-02-28T00:23:22.833Z,26.30
2019-02-28T00:25:52.410Z,27.37
2019-02-28T00:28:23.067Z,26.00
2019-02-28T00:30:53.878Z,27.30
2019-02-28T00:33:23.410Z,27.13
2019-02-28T00:35:53.218Z,26.67
2019-02-28T00:38:22.963Z,27.17
2019-02-28T00:40:52.868Z,28.23
2019-02-28T00:43:25.194Z,27.13
2019-02-28T00:45:53.840Z,30.40
2019-02-28T00:48:23.651Z,27.90
2019-02-28T00:50:53.584Z,28.60
2019-02-28T00:53:23.238Z,29.83
2019-02-28T00:55:52.793Z,28.90
2019-02-28T00:58:22.393Z,29.57
2019-02-28T01:00:52.033Z,30.57
2019-02-28T01:03:26.412Z,31.20
2019-02-28T01:05:53.312Z,29.67
2019-02-28T01:08:23.381Z,29.87
2019-02-28T01:10:52.988Z,31.33
2019-02-28T01:13:27.268Z,32.47
2019-02-28T01:15:54.569Z,31.27
2019-02-28T01:18:24.168Z,32.17
2019-02-28T01:20:53.765Z,33.30
2019-02-28T01:23:23.394Z,34.97
2019-02-28T01:25:52.965Z,33.37
2019-02-28T01:28:26.906Z,35.33
2019-02-28T01:30:57.182Z,35.37
2019-02-28T01:33:27.069Z,34.73
2019-02-28T01:35:56.686Z,36.63
2019-02-28T01:38:26.236Z,36.90
2019-02-28T01:40:56.036Z,36.30
2019-02-28T01:43:28.946Z,37.30
2019-02-28T01:45:59.461Z,37.67
2019-02-28T01:48:29.186Z,39.60
2019-02-28T01:51:00.796Z,39.67
2019-02-28T01:53:30.527Z,36.83
2019-02-28T01:56:02.502Z,37.93
2019-02-28T01:58:31.541Z,38.23
2019-02-28T02:01:01.586Z,38.20
2019-02-28T02:03:31.211Z,37.13
2019-02-28T02:06:01.681Z,41.97
2019-02-28T02:08:31.247Z,38.83
2019-02-28T02:11:20.196Z,39.60
2019-02-28T02:13:49.847Z,40.30
2019-02-28T02:16:19.628Z,39.23
2019-02-28T02:18:49.170Z,39.70
2019-02-28T02:21:19.718Z,40.00
2019-02-28T02:23:52.965Z,39.93
2019-02-28T02:26:21.078Z,40.23
2019-02-28T02:28:50.706Z,39.10
2019-02-28T02:31:27.133Z,38.97
2019-02-28T02:33:52.742Z,40.90
2019-02-28T02:36:22.737Z,41.57
2019-02-28T02:38:52.358Z,41.37
2019-02-28T02:41:22.149Z,42.20
2019-02-28T02:43:55.074Z,41.43
2019-02-28T02:46:23.009Z,42.00
2019-02-28T02:48:52.582Z,42.43
2019-02-28T02:51:22.324Z,41.57
2019-02-28T02:53:51.824Z,44.37
2019-02-28T02:56:21.391Z,42.33
2019-02-28T02:58:51.134Z,43.10
2019-02-28T03:01:23.149Z,41.40
2019-02-28T03:03:52.180Z,43.73
2019-02-28T03:06:21.900Z,42.30
2019-02-28T03:08:51.620Z,42.80
2019-02-28T03:11:24.684Z,42.50
2019-02-28T03:13:54.115Z,42.30
2019-02-28T03:16:23.740Z,41.17
2019-02-28T03:18:56.879Z,43.07
2019-02-28T03:21:24.651Z,43.07
2019-02-28T03:23:56.373Z,45.13
2019-02-28T03:26:26.150Z,42.53
2019-02-28T03:28:56.117Z,43.50
2019-02-28T03:31:25.974Z,43.50
2019-02-28T03:33:55.662Z,44.50
2019-02-28T03:36:25.387Z,46.80
2019-02-28T03:38:55.100Z,44.67
2019-02-28T03:41:24.624Z,41.67
2019-02-28T03:43:54.210Z,44.63
2019-02-28T03:46:23.901Z,42.70
2019-02-28T03:48:55.762Z,44.47
2019-02-28T03:51:28.449Z,44.97
2019-02-28T03:53:57.705Z,45.10
2019-02-28T03:56:27.379Z,44.20
2019-02-28T03:58:57.096Z,46.00
2019-02-28T04:01:28.424Z,47.30
2019-02-28T04:03:58.021Z,46.50
2019-02-28T04:06:28.969Z,45.93
2019-02-28T04:09:07.086Z,45.63
2019-02-28T04:11:31.130Z,48.03
2019-02-28T04:14:01.993Z,47.37
2019-02-28T04:16:31.709Z,48.63
2019-02-28T04:19:01.692Z,47.17
2019-02-28T04:21:31.871Z,48.57
2019-02-28T04:24:01.529Z,50.33
2019-02-28T04:26:31.159Z,48.17
2019-02-28T04:29:01.987Z,49.17
2019-02-28T04:31:31.615Z,51.00
2019-02-28T04:34:01.165Z,51.03
2019-02-28T04:36:35.413Z,51.23
2019-02-28T04:39:02.007Z,53.53
2019-02-28T04:41:32.969Z,53.80
2019-02-28T04:44:05.445Z,52.90
2019-02-28T04:46:35.171Z,56.03
2019-02-28T04:49:04.776Z,57.30
2019-02-28T04:51:37.039Z,55.33
2019-02-28T04:54:06.307Z,58.17
2019-02-28T04:56:35.944Z,55.60
2019-02-28T04:59:10.296Z,51.90
2019-02-28T05:01:39.875Z,55.67
2019-02-28T05:04:10.795Z,56.30
2019-02-28T05:06:41.657Z,58.37
2019-02-28T05:09:14.492Z,56.00
2019-02-28T05:11:42.626Z,58.07
2019-02-28T05:14:12.807Z,55.73
2019-02-28T05:16:47.178Z,55.27
2019-02-28T05:19:13.809Z,59.47
2019-02-28T05:21:43.469Z,56.80
2019-02-28T05:24:13.093Z,58.93
2019-02-28T05:26:42.767Z,57.27
2019-02-28T05:29:13.095Z,56.80
2019-02-28T05:31:43.089Z,60.17
2019-02-28T05:34:16.035Z,56.93
2019-02-28T05:36:46.123Z,60.03
2019-02-28T05:39:15.751Z,59.17
2019-02-28T05:41:49.107Z,61.20
2019-02-28T05:44:16.757Z,59.03
2019-02-28T05:46:46.362Z,58.00
2019-02-28T05:49:16.405Z,60.97
2019-02-28T05:51:48.159Z,60.67
2019-02-28T05:54:18.191Z,60.27
2019-02-28T05:56:48.369Z,61.70
2019-02-28T05:59:17.919Z,63.13
2019-02-28T06:01:47.720Z,62.17
2019-02-28T06:04:17.888Z,60.17
2019-02-28T06:06:47.588Z,61.97
2019-02-28T06:09:18.757Z,61.63
2019-02-28T06:11:48.446Z,60.73
2019-02-28T06:14:18.614Z,63.27
2019-02-28T06:16:48.417Z,60.47
2019-02-28T06:19:19.730Z,61.60
2019-02-28T06:21:53.058Z,64.87
2019-02-28T06:24:22.747Z,61.90
2019-02-28T06:26:52.347Z,64.13
2019-02-28T06:29:22.416Z,62.60
2019-02-28T06:31:53.449Z,60.73
2019-02-28T06:34:23.047Z,63.57
2019-02-28T06:36:52.868Z,57.20
2019-02-28T06:39:22.434Z,62.87
2019-02-28T06:41:52.031Z,60.53
2019-02-28T06:44:24.187Z,61.50
2019-02-28T06:46:53.038Z,63.00
2019-02-28T06:49:22.796Z,58.73
2019-02-28T06:51:52.889Z,59.60
2019-02-28T06:54:22.551Z,58.80
2019-02-28T06:56:54.114Z,58.43
2019-02-28T06:59:26.807Z,61.23
2019-02-28T07:01:57.699Z,59.57
2019-02-28T07:04:27.623Z,59.73
2019-02-28T07:06:57.558Z,59.60
2019-02-28T07:09:27.155Z,59.73
2019-02-28T07:11:56.897Z,60.63
2019-02-28T07:14:26.677Z,60.13
2019-02-28T07:16:59.122Z,59.10
2019-02-28T07:19:28.894Z,58.73
2019-02-28T07:22:00.756Z,57.70
2019-02-28T07:24:37.239Z,58.83
2019-02-28T07:27:04.181Z,56.93
2019-02-28T07:29:33.735Z,59.57
2019-02-28T07:32:03.421Z,59.03
2019-02-28T07:34:33.959Z,60.00
2019-02-28T07:37:04.196Z,60.97
2019-02-28T07:39:36.540Z,58.03
2019-02-28T07:42:05.382Z,58.80
2019-02-28T07:44:35.068Z,59.80
2019-02-28T07:47:05.021Z,59.33
2019-02-28T07:49:36.753Z,62.37
2019-02-28T07:52:06.639Z,60.77
2019-02-28T07:54:36.333Z,61.93
2019-02-28T07:57:06.039Z,58.85
2019-02-28T07:59:40.967Z,61.03
2019-02-28T08:02:07.068Z,70.97
2019-02-28T08:04:36.689Z,61.97
2019-02-28T08:07:06.624Z,64.07
2019-02-28T08:09:36.859Z,62.17
2019-02-28T08:12:07.956Z,65.93
2019-02-28T08:14:39.675Z,61.87
2019-02-28T08:17:15.921Z,63.03
2019-02-28T08:19:45.352Z,63.80
2019-02-28T08:22:23.379Z,64.10
2019-02-28T08:24:47.199Z,63.53
2019-02-28T08:27:16.941Z,63.93
2019-02-28T08:29:46.677Z,64.20
2019-02-28T08:32:16.471Z,62.07
2019-02-28T08:34:50.065Z,61.57
2019-02-28T08:37:21.885Z,62.43
2019-02-28T08:39:51.413Z,61.63
2019-02-28T08:42:21.053Z,65.50
2019-02-28T08:44:50.575Z,61.20
2019-02-28T08:47:21.157Z,61.97
2019-02-28T08:49:51.635Z,57.37
2019-02-28T08:52:21.202Z,61.77
2019-02-28T08:54:50.766Z,58.40
2019-02-28T08:57:21.940Z,62.13
2019-02-28T08:59:52.533Z,61.73
2019-02-28T09:02:23.314Z,62.30
2019-02-28T09:04:53.279Z,58.00
2019-02-28T09:07:22.912Z,60.63
2019-02-28T09:09:52.686Z,57.63
2019-02-28T09:12:22.539Z,55.07
2019-02-28T09:14:55.340Z,59.20
2019-02-28T09:17:23.781Z,56.33
2019-02-28T09:19:53.428Z,55.73
2019-02-28T09:22:26.835Z,55.80
2019-02-28T09:24:57.490Z,53.83
2019-02-28T09:27:29.377Z,53.97
2019-02-28T09:29:59.069Z,55.17
2019-02-28T09:32:28.693Z,55.73
2019-02-28T09:34:58.539Z,55.37
2019-02-28T09:37:29.917Z,55.10
2019-02-28T09:40:00.011Z,56.13
2019-02-28T09:42:31.674Z,59.37
2019-02-28T09:45:06.435Z,55.50
2019-02-28T09:47:32.984Z,58.53
2019-02-28T09:50:02.713Z,57.13
2019-02-28T09:52:32.450Z,58.30
2019-02-28T09:55:02.044Z,55.07
2019-02-28T09:57:31.757Z,56.07
2019-02-28T10:00:01.539Z,60.03
2019-02-28T10:02:31.219Z,58.27
2019-02-28T10:05:02.943Z,57.23
2019-02-28T10:07:32.481Z,57.30
2019-02-28T10:10:02.179Z,59.67
2019-02-28T10:12:31.887Z,58.70
2019-02-28T10:15:07.000Z,58.53
2019-02-28T10:17:33.034Z,60.00
2019-02-28T10:20:04.775Z,58.37
2019-02-28T10:22:34.664Z,57.47
2019-02-28T10:25:06.514Z,56.40
2019-02-28T10:27:36.521Z,59.27
2019-02-28T10:30:16.777Z,57.97
2019-02-28T10:32:46.871Z,54.83
2019-02-28T10:35:18.537Z,57.20
2019-02-28T10:37:49.305Z,59.93
2019-02-28T10:40:31.277Z,58.23
2019-02-28T10:43:00.985Z,55.33
2019-02-28T10:45:30.932Z,55.53
2019-02-28T10:48:03.953Z,55.97
2019-02-28T10:50:34.368Z,57.77
2019-02-28T10:53:06.135Z,57.80
2019-02-28T10:55:39.470Z,57.20
2019-02-28T10:58:09.380Z,56.43
2019-02-28T11:00:46.649Z,57.97
2019-02-28T11:03:16.659Z,56.27
2019-02-28T11:05:46.954Z,57.60
2019-02-28T11:08:19.236Z,54.00
2019-02-28T11:10:49.158Z,55.60
2019-02-28T11:13:22.735Z,56.03
2019-02-28T11:15:53.090Z,51.87
2019-02-28T11:18:22.772Z,56.57
2019-02-28T11:20:52.384Z,55.37
2019-02-28T11:23:23.642Z,54.03
2019-02-28T11:25:53.759Z,57.33
2019-02-28T11:28:27.923Z,54.63
2019-02-28T11:30:57.098Z,53.67
2019-02-28T11:33:27.089Z,55.23
2019-02-28T11:35:59.093Z,52.67
2019-02-28T11:38:28.820Z,52.30
2019-02-28T11:40:58.601Z,53.10
2019-02-28T11:43:28.275Z,52.40
2019-02-28T11:46:00.794Z,51.53
2019-02-28T11:48:30.618Z,54.40
2019-02-28T11:51:00.225Z,55.47
2019-02-28T11:53:29.930Z,54.47
2019-02-28T11:56:01.308Z,53.87
2019-02-28T11:58:31.226Z,56.80
2019-02-28T12:01:02.304Z,52.10
2019-02-28T12:03:35.492Z,52.20
2019-02-28T12:06:03.864Z,53.13
2019-02-28T12:08:33.675Z,54.77
2019-02-28T12:11:03.220Z,54.57
2019-02-28T12:13:32.837Z,53.83
2019-02-28T12:16:03.570Z,52.60
2019-02-28T12:18:33.265Z,52.77
2019-02-28T12:21:04.918Z,52.13
2019-02-28T12:23:34.279Z,50.73
2019-02-28T12:26:04.024Z,50.87
2019-02-28T12:28:35.230Z,51.30
2019-02-28T12:31:08.153Z,51.27
2019-02-28T12:33:37.824Z,50.30
2019-02-28T12:36:07.570Z,49.00
2019-02-28T12:38:39.876Z,49.87
2019-02-28T12:41:09.422Z,48.27
2019-02-28T12:43:40.564Z,49.27
2019-02-28T12:46:10.861Z,48.33
2019-02-28T12:48:40.449Z,50.80
2019-02-28T12:51:10.516Z,49.83
2019-02-28T12:53:40.253Z,51.40
2019-02-28T12:56:29.126Z,49.00
2019-02-28T12:58:58.759Z,46.53
2019-02-28T13:01:28.440Z,46.37
2019-02-28T13:04:00.603Z,47.00
2019-02-28T13:06:30.564Z,46.40
2019-02-28T13:09:00.153Z,47.03
2019-02-28T13:11:29.672Z,44.63
2019-02-28T13:14:00.036Z,44.77
2019-02-28T13:16:30.627Z,43.47
2019-02-28T13:19:00.263Z,45.77
2019-02-28T13:21:31.219Z,45.43
2019-02-28T13:24:01.344Z,45.20
2019-02-28T13:26:33.693Z,47.73
2019-02-28T13:29:02.836Z,45.23
2019-02-28T13:31:32.466Z,45.10
2019-02-28T13:34:02.072Z,46.97
2019-02-28T13:36:31.715Z,44.70
2019-02-28T13:39:01.390Z,45.37
2019-02-28T13:41:31.404Z,46.30
2019-02-28T13:44:01.033Z,46.20
2019-02-28T13:46:33.988Z,45.83
2019-02-28T13:49:02.071Z,41.30
2019-02-28T13:51:32.786Z,43.90
2019-02-28T13:54:06.388Z,42.67
2019-02-28T13:56:34.625Z,41.07
2019-02-28T13:59:04.340Z,40.03
2019-02-28T14:01:34.211Z,39.30
2019-02-28T14:04:03.871Z,38.60
2019-02-28T14:06:33.846Z,40.17
2019-02-28T14:09:04.745Z,44.13
2019-02-28T14:11:34.274Z,44.90
2019-02-28T14:14:06.363Z,47.80
2019-02-28T14:16:35.248Z,44.97
2019-02-28T14:19:05.189Z,41.87
2019-02-28T14:21:37.065Z,41.13
2019-02-28T14:24:06.182Z,39.03
2019-02-28T14:26:42.537Z,39.20
2019-02-28T14:29:10.487Z,36.00
2019-02-28T14:31:38.587Z,43.47
2019-02-28T14:34:08.818Z,44.43
2019-02-28T14:36:41.787Z,40.20
2019-02-28T14:39:12.355Z,37.37
2019-02-28T14:41:41.958Z,38.27
2019-02-28T14:44:11.706Z,42.00
2019-02-28T14:46:41.426Z,40.07
2019-02-28T14:49:12.500Z,40.27
2019-02-28T14:51:42.781Z,33.90
2019-02-28T14:54:12.339Z,36.00
2019-02-28T14:56:42.971Z,35.50
2019-02-28T14:59:12.742Z,39.77
2019-02-28T15:01:42.394Z,41.90
2019-02-28T15:04:11.891Z,41.00
2019-02-28T15:06:41.439Z,40.50
2019-02-28T15:09:16.674Z,39.90
2019-02-28T15:11:46.839Z,39.87
2019-02-28T15:14:17.855Z,36.07
2019-02-28T15:16:47.583Z,38.27
2019-02-28T15:19:17.139Z,36.33
2019-02-28T15:21:46.688Z,34.80
2019-02-28T15:24:16.219Z,33.93
2019-02-28T15:26:45.724Z,31.73
2019-02-28T15:29:15.436Z,30.97
2019-02-28T15:31:44.970Z,30.17
2019-02-28T15:34:14.551Z,30.70
2019-02-28T15:36:44.517Z,27.73
2019-02-28T15:39:17.160Z,27.60
2019-02-28T15:41:45.499Z,28.70
2019-02-28T15:44:15.134Z,27.87
2019-02-28T15:46:47.545Z,26.67
2019-02-28T15:49:16.033Z,25.30
2019-02-28T15:51:47.972Z,24.63
2019-02-28T15:54:21.652Z,22.73
2019-02-28T15:56:55.154Z,23.97
2019-02-28T15:59:23.009Z,21.23
2019-02-28T16:01:52.707Z,22.60
2019-02-28T16:04:23.539Z,23.07
2019-02-28T16:06:57.922Z,21.40
2019-02-28T16:09:28.120Z,19.33
2019-02-28T16:11:59.383Z,20.70
2019-02-28T16:14:34.813Z,20.50
2019-02-28T16:17:03.571Z,22.47
2019-02-28T16:19:33.363Z,22.37
2019-02-28T16:22:02.943Z,22.37
2019-02-28T16:24:32.461Z,21.93
2019-02-28T16:27:02.232Z,23.50
2019-02-28T16:29:31.838Z,21.67
2019-02-28T16:32:01.734Z,23.90
2019-02-28T16:34:31.303Z,21.90
2019-02-28T16:37:01.863Z,21.67
2019-02-28T16:39:31.612Z,24.33
2019-02-28T16:42:01.215Z,21.40
2019-02-28T16:44:31.678Z,21.83
2019-02-28T16:47:01.724Z,23.63
2019-02-28T16:49:31.507Z,24.70
2019-02-28T16:52:02.607Z,21.97
2019-02-28T16:54:34.240Z,24.20
2019-02-28T16:57:03.785Z,24.50
2019-02-28T16:59:33.762Z,21.40
2019-02-28T17:02:03.541Z,22.47
2019-02-28T17:04:33.513Z,23.20
2019-02-28T17:07:03.201Z,24.10
2019-02-28T17:09:34.646Z,22.80
2019-02-28T17:12:05.918Z,23.07
2019-02-28T17:14:35.472Z,26.10
2019-02-28T17:17:08.719Z,25.13
2019-02-28T17:19:38.246Z,24.10
2019-02-28T17:22:07.926Z,22.27
2019-02-28T17:24:37.588Z,21.97
2019-02-28T17:27:11.311Z,23.63
2019-02-28T17:29:45.602Z,22.63
2019-02-28T17:32:15.190Z,23.20
2019-02-28T17:34:45.394Z,21.90
2019-02-28T17:37:15.065Z,20.80
2019-02-28T17:39:47.462Z,21.97
2019-02-28T17:42:16.051Z,22.17
2019-02-28T17:44:56.139Z,23.40
2019-02-28T17:47:33.110Z,21.13
2019-02-28T17:50:33.626Z,22.37
2019-02-28T17:53:36.910Z,21.17
2019-02-28T17:56:23.203Z,21.93
2019-02-28T17:59:18.672Z,20.83
2019-02-28T18:02:27.639Z,21.47
2019-02-28T18:05:40.362Z,23.23
2019-02-28T18:08:37.461Z,22.33
2019-02-28T18:11:34.115Z,22.03
2019-02-28T18:14:42.716Z,23.03
2019-02-28T18:17:34.965Z,22.83
2019-02-28T18:20:20.999Z,21.50
2019-02-28T18:23:07.386Z,22.33
2019-02-28T18:25:44.758Z,23.10
2019-02-28T18:28:41.654Z,22.20
2019-02-28T18:31:19.088Z,22.77
2019-02-28T18:33:52.348Z,21.37
2019-02-28T18:36:29.376Z,22.17
2019-02-28T18:38:59.006Z,21.37
2019-02-28T18:41:29.249Z,25.37
2019-02-28T18:43:59.937Z,23.10
2019-02-28T18:46:31.611Z,22.47
2019-02-28T18:49:01.208Z,22.83
2019-02-28T18:51:30.957Z,22.93
2019-02-28T18:54:01.038Z,23.30
2019-02-28T18:56:30.695Z,25.30
2019-02-28T18:59:00.264Z,23.00
2019-02-28T19:01:29.960Z,22.33
2019-02-28T19:03:59.490Z,23.40
2019-02-28T19:06:30.822Z,23.17
2019-02-28T19:09:04.836Z,24.07
2019-02-28T19:11:34.425Z,22.97
2019-02-28T19:14:04.074Z,28.90
2019-02-28T19:16:33.796Z,22.60
2019-02-28T19:19:03.372Z,23.17
2019-02-28T19:21:32.977Z,22.60
2019-02-28T19:24:02.633Z,22.50
2019-02-28T19:26:32.285Z,24.00
2019-02-28T19:29:01.802Z,23.27
2019-02-28T19:31:31.595Z,21.07
2019-02-28T19:34:01.124Z,21.97
2019-02-28T19:36:30.880Z,21.97
2019-02-28T19:39:00.705Z,20.53
2019-02-28T19:41:30.387Z,21.80
2019-02-28T19:44:00.494Z,21.23
2019-02-28T19:46:30.273Z,20.57
2019-02-28T19:48:59.942Z,22.60
2019-02-28T19:51:29.697Z,20.77
2019-02-28T19:53:59.433Z,22.90
2019-02-28T19:56:29.195Z,21.80
2019-02-28T19:58:58.981Z,22.50
2019-02-28T20:01:28.666Z,21.60
2019-02-28T20:03:58.201Z,22.90
2019-02-28T20:06:27.901Z,22.40
2019-02-28T20:08:57.625Z,23.77
2019-02-28T20:11:27.366Z,22.30
2019-02-28T20:13:57.262Z,23.53
2019-02-28T20:16:31.868Z,23.33
2019-02-28T20:19:01.467Z,22.00
2019-02-28T20:21:31.351Z,21.23
2019-02-28T20:24:01.445Z,22.27
2019-02-28T20:26:31.560Z,22.40
2019-02-28T20:29:01.252Z,23.37
2019-02-28T20:31:31.056Z,22.93
2019-02-28T20:34:00.687Z,22.30
2019-02-28T20:36:30.561Z,22.17
2019-02-28T20:39:00.842Z,22.47
2019-02-28T20:41:30.860Z,22.63
2019-02-28T20:44:01.656Z,24.37
2019-02-28T20:46:31.224Z,24.43
2019-02-28T20:49:00.995Z,23.20
2019-02-28T20:51:30.537Z,23.93
2019-02-28T20:54:00.297Z,23.67
2019-02-28T20:56:29.849Z,24.20
2019-02-28T20:58:59.585Z,22.93
2019-02-28T21:01:29.658Z,22.93
2019-02-28T21:03:59.350Z,22.50
2019-02-28T21:06:28.906Z,22.97
2019-02-28T21:09:05.105Z,22.23
2019-02-28T21:11:34.794Z,24.80
2019-02-28T21:14:04.673Z,23.57
2019-02-28T21:16:36.559Z,24.97
2019-02-28T21:19:06.340Z,25.73
2019-02-28T21:21:36.125Z,23.57
2019-02-28T21:24:05.992Z,24.40
2019-02-28T21:26:35.621Z,25.40
2019-02-28T21:29:05.207Z,24.70
2019-02-28T21:31:35.193Z,24.63
2019-02-28T21:34:05.389Z,24.60
2019-02-28T21:36:36.113Z,24.13
2019-02-28T21:39:08.427Z,27.00
2019-02-28T21:41:38.189Z,26.40
2019-02-28T21:44:10.656Z,26.70
2019-02-28T21:46:41.061Z,24.80
2019-02-28T21:49:10.685Z,27.20
2019-02-28T21:51:40.470Z,25.63
2019-02-28T21:54:11.389Z,29.10
2019-02-28T21:56:40.981Z,25.80
2019-02-28T21:59:10.650Z,26.07
2019-02-28T22:01:40.243Z,26.63
2019-02-28T22:04:10.139Z,27.47
2019-02-28T22:06:39.674Z,28.13
2019-02-28T22:09:09.844Z,27.67
2019-02-28T22:11:39.577Z,29.77
2019-02-28T22:14:10.717Z,28.80
2019-02-28T22:16:42.320Z,29.27
2019-02-28T22:19:11.993Z,29.37
2019-02-28T22:21:41.590Z,28.80
2019-02-28T22:24:11.247Z,28.63
2019-02-28T22:26:40.913Z,30.93
2019-02-28T22:29:10.662Z,30.30
2019-02-28T22:31:42.327Z,32.50
2019-02-28T22:34:13.615Z,33.27
2019-02-28T22:36:43.755Z,33.47
2019-02-28T22:39:14.779Z,30.10
2019-02-28T22:41:44.399Z,31.10
2019-02-28T22:44:14.078Z,30.53
2019-02-28T22:46:43.644Z,32.03
2019-02-28T22:49:13.436Z,30.20
2019-02-28T22:51:44.501Z,31.20
2019-02-28T22:54:14.090Z,31.50
2019-02-28T22:56:43.663Z,32.40
2019-02-28T22:59:13.260Z,31.40
2019-02-28T23:01:45.415Z,30.70
2019-02-28T23:04:16.719Z,30.40
2019-02-28T23:06:46.418Z,31.37
2019-02-28T23:09:16.125Z,30.70
2019-02-28T23:11:45.643Z,32.40
2019-02-28T23:14:17.906Z,34.00
2019-02-28T23:17:06.933Z,33.00
2019-02-28T23:19:36.660Z,32.17
2019-02-28T23:22:06.351Z,30.60
2019-02-28T23:24:36.073Z,30.93
2019-02-28T23:27:15.198Z,32.80
2019-02-28T23:29:49.494Z,31.90
2019-02-28T23:33:00.821Z,32.67
2019-02-28T23:35:34.276Z,30.73
2019-02-28T23:38:04.055Z,32.17
2019-02-28T23:40:35.530Z,32.50
2019-02-28T23:43:05.638Z,31.47
2019-02-28T23:45:35.306Z,32.20
2019-02-28T23:48:05.046Z,34.37
2019-02-28T23:50:34.707Z,33.50
2019-02-28T23:53:06.061Z,33.77
2019-02-28T23:55:38.628Z,34.20
2019-02-28T23:58:08.288Z,34.90
